Time;durP1;ratioP1;P1;durP2;ratioP2;P2;SDS_P1;SDS_P2;PMS_P1;PMS_P2;Temp;Humidity;BMP_temperature;BMP_pressure;BME280_temperature;BME280_humidity;BME280_pressure;Samples;Min_cycle;Max_cycle;Signal;HPM_P1;HPM_P2
2022/02/23 00:00:34;;;;;;;3.33;0.90;;;9.50;99.90;;;;;;5019872;28;20493;-86
2022/02/23 00:03:01;;;;;;;4.30;1.23;;;9.50;99.90;;;;;;5018511;28;20477;-86
2022/02/23 00:05:28;;;;;;;3.00;0.97;;;9.60;99.90;;;;;;5018157;28;20492;-86
2022/02/23 00:07:55;;;;;;;3.90;0.90;;;9.60;99.90;;;;;;5019998;28;20545;-87
2022/02/23 00:10:22;;;;;;;3.45;0.80;;;9.70;99.90;;;;;;5030092;28;20458;-86
2022/02/23 00:12:50;;;;;;;3.30;1.10;;;9.60;99.90;;;;;;5019278;28;20238;-85
2022/02/23 00:15:17;;;;;;;3.27;1.03;;;9.60;99.90;;;;;;5018239;28;20453;-85
2022/02/23 00:17:44;;;;;;;3.50;1.33;;;9.60;99.90;;;;;;5021107;28;20462;-86
2022/02/23 00:20:12;;;;;;;2.67;0.83;;;9.70;99.90;;;;;;5023448;28;21023;-87
2022/02/23 00:22:39;;;;;;;3.10;0.90;;;9.60;99.90;;;;;;5024261;28;20549;-85
2022/02/23 00:25:07;;;;;;;4.35;1.02;;;9.60;99.90;;;;;;5024874;28;20502;-85
2022/02/23 00:27:35;;;;;;;6.93;1.13;;;9.70;99.90;;;;;;5024724;28;20259;-84
2022/02/23 00:30:05;;;;;;;2.97;1.07;;;9.70;99.90;;;;;;5023387;28;20484;-84
2022/02/23 00:32:32;;;;;;;5.57;1.47;;;9.70;99.90;;;;;;5023443;28;20478;-86
2022/02/23 00:34:59;;;;;;;3.37;0.80;;;9.60;99.90;;;;;;5023635;28;20799;-86
2022/02/23 00:37:26;;;;;;;3.10;0.93;;;9.60;99.90;;;;;;5027664;28;20450;-85
2022/02/23 00:39:53;;;;;;;2.90;0.80;;;9.60;99.90;;;;;;5024447;28;20563;-86
2022/02/23 00:42:19;;;;;;;2.53;0.90;;;9.60;99.90;;;;;;5023235;28;20486;-86
2022/02/23 00:44:46;;;;;;;3.13;0.90;;;9.70;99.90;;;;;;5023644;28;20445;-85
2022/02/23 00:47:15;;;;;;;3.33;1.10;;;9.60;99.90;;;;;;5026824;28;20434;-86
2022/02/23 00:49:42;;;;;;;3.53;1.17;;;9.70;99.90;;;;;;5034697;28;20493;-86
2022/02/23 00:52:09;;;;;;;3.10;1.43;;;9.70;99.90;;;;;;5030044;28;20445;-86
2022/02/23 00:54:36;;;;;;;3.13;0.87;;;9.70;99.90;;;;;;5030301;28;20469;-86
2022/02/23 00:57:04;;;;;;;3.37;1.37;;;9.70;99.90;;;;;;5024693;28;20531;-86
2022/02/23 00:59:31;;;;;;;2.73;0.90;;;9.70;99.90;;;;;;5035691;28;20445;-86
2022/02/23 01:01:57;;;;;;;3.77;1.00;;;9.60;99.90;;;;;;5037975;28;20541;-86
2022/02/23 01:04:26;;;;;;;4.03;1.00;;;9.70;99.90;;;;;;5024592;28;20424;-86
2022/02/23 01:06:53;;;;;;;3.00;0.80;;;9.70;99.90;;;;;;5023720;28;20463;-84
2022/02/23 01:09:20;;;;;;;3.00;1.30;;;9.60;99.90;;;;;;5033303;28;20510;-84
2022/02/23 01:11:47;;;;;;;3.60;1.10;;;9.60;99.90;;;;;;5030092;28;20548;-85
2022/02/23 01:14:14;;;;;;;4.00;1.00;;;9.70;99.90;;;;;;5023677;28;20436;-85
2022/02/23 01:16:41;;;;;;;3.00;0.97;;;9.70;99.90;;;;;;5022573;28;20459;-86
2022/02/23 01:19:08;;;;;;;4.60;0.97;;;9.70;99.90;;;;;;5023094;28;20515;-86
2022/02/23 01:21:36;;;;;;;3.00;0.90;;;9.70;99.90;;;;;;5024504;28;20838;-86
2022/02/23 01:24:03;;;;;;;3.27;0.87;;;9.80;99.90;;;;;;5022904;28;20549;-86
2022/02/23 01:26:30;;;;;;;5.80;1.00;;;9.80;99.90;;;;;;5030523;28;20425;-85
2022/02/23 01:28:57;;;;;;;3.47;1.17;;;9.80;99.90;;;;;;5028607;28;20526;-85
2022/02/23 01:31:24;;;;;;;3.37;0.93;;;9.80;99.90;;;;;;5031817;28;20592;-84
2022/02/23 01:33:51;;;;;;;3.87;1.13;;;9.70;99.90;;;;;;5023435;28;20529;-86
2022/02/23 01:36:18;;;;;;;4.20;1.03;;;9.70;99.90;;;;;;5020236;28;21006;-86
2022/02/23 01:38:46;;;;;;;3.00;0.90;;;9.70;99.90;;;;;;5021178;28;20533;-86
2022/02/23 01:41:17;;;;;;;3.10;1.07;;;9.70;99.90;;;;;;5022222;28;20458;-85
2022/02/23 01:43:45;;;;;;;4.03;1.13;;;9.70;99.90;;;;;;5021855;28;20532;-85
2022/02/23 01:46:12;;;;;;;2.70;1.00;;;9.60;99.90;;;;;;5022169;28;20477;-85
2022/02/23 01:48:38;;;;;;;2.60;0.80;;;9.60;99.90;;;;;;5021953;28;21085;-85
2022/02/23 01:51:06;;;;;;;3.57;1.20;;;9.70;99.90;;;;;;5022083;28;20526;-85
2022/02/23 01:53:33;;;;;;;3.07;0.80;;;9.60;99.90;;;;;;5021781;28;20501;-85
2022/02/23 01:56:01;;;;;;;5.83;0.80;;;9.70;99.90;;;;;;5021500;28;20545;-85
2022/02/23 01:58:28;;;;;;;3.57;1.10;;;9.30;99.90;;;;;;5021824;28;20442;-85
2022/02/23 02:00:56;;;;;;;5.25;1.10;;;8.50;99.90;;;;;;5021408;28;20457;-86
2022/02/23 02:03:24;;;;;;;7.40;1.65;;;8.10;99.90;;;;;;5023210;28;20254;-86
2022/02/23 02:05:51;;;;;;;3.63;1.00;;;8.00;99.90;;;;;;5023403;28;20214;-85
2022/02/23 02:08:18;;;;;;;6.82;1.13;;;7.70;99.90;;;;;;5022007;28;20294;-84
2022/02/23 02:10:44;;;;;;;10.48;1.10;;;7.50;99.90;;;;;;5023549;28;20560;-85
2022/02/23 02:13:13;;;;;;;3.80;1.10;;;7.30;99.90;;;;;;5022898;28;20273;-85
2022/02/23 02:15:41;;;;;;;3.22;0.90;;;7.30;99.90;;;;;;5022561;28;20242;-85
2022/02/23 02:18:08;;;;;;;8.02;1.15;;;7.10;99.90;;;;;;5024137;28;20207;-84
2022/02/23 02:20:35;;;;;;;4.32;1.70;;;7.10;99.90;;;;;;5030872;28;20211;-85
2022/02/23 02:23:04;;;;;;;8.15;1.30;;;7.00;99.90;;;;;;5027066;28;20237;-85
2022/02/23 02:25:30;;;;;;;6.63;1.42;;;7.00;99.90;;;;;;5023906;28;20210;-85
2022/02/23 02:27:57;;;;;;;8.68;1.50;;;7.00;99.90;;;;;;5029180;28;20221;-84
2022/02/23 02:30:24;;;;;;;6.85;1.70;;;7.00;99.90;;;;;;5024339;28;20215;-82
2022/02/23 02:32:51;;;;;;;7.00;1.67;;;6.80;99.90;;;;;;5027514;28;20222;-84
2022/02/23 02:35:18;;;;;;;6.40;1.90;;;7.20;99.90;;;;;;5023652;28;20682;-85
2022/02/23 02:37:45;;;;;;;6.50;1.20;;;7.20;99.90;;;;;;5028015;28;20210;-85
2022/02/23 02:40:14;;;;;;;6.15;1.80;;;7.30;99.90;;;;;;5026103;28;20209;-84
2022/02/23 02:42:41;;;;;;;7.72;1.30;;;7.00;99.90;;;;;;5041362;23;20244;-87
2022/02/23 02:45:09;;;;;;;5.35;1.15;;;7.10;99.90;;;;;;5019823;28;20285;-86
2022/02/23 02:47:36;;;;;;;5.85;1.30;;;7.40;99.90;;;;;;5032057;28;20222;-86
2022/02/23 02:50:03;;;;;;;4.05;1.40;;;7.40;99.90;;;;;;5029348;28;20261;-87
2022/02/23 02:52:32;;;;;;;7.38;1.50;;;7.20;99.90;;;;;;5025126;28;20292;-87
2022/02/23 02:54:59;;;;;;;5.28;1.38;;;7.30;99.90;;;;;;5023123;28;20587;-88
2022/02/23 02:57:28;;;;;;;7.40;2.00;;;7.30;99.90;;;;;;5022372;28;20581;-88
2022/02/23 02:59:55;;;;;;;4.13;1.75;;;7.40;99.90;;;;;;5022107;28;20676;-87
2022/02/23 03:02:21;;;;;;;6.82;1.50;;;7.40;99.90;;;;;;5022583;28;20219;-86
2022/02/23 03:04:48;;;;;;;7.05;1.60;;;7.40;99.90;;;;;;5022371;28;20258;-88
2022/02/23 03:07:16;;;;;;;4.90;1.40;;;7.40;99.90;;;;;;5022492;28;20243;-88
2022/02/23 03:09:43;;;;;;;5.70;1.48;;;7.50;99.90;;;;;;5022332;28;20230;-88
2022/02/23 03:12:10;;;;;;;6.93;2.60;;;7.50;99.90;;;;;;5022151;28;20216;-87
2022/02/23 03:14:39;;;;;;;7.32;1.80;;;7.60;99.90;;;;;;5022371;28;20290;-88
2022/02/23 03:17:06;;;;;;;8.63;1.42;;;7.40;99.90;;;;;;5023341;28;20688;-89
2022/02/23 03:19:33;;;;;;;5.75;1.20;;;7.60;99.90;;;;;;5025454;28;20207;-89
2022/02/23 03:22:00;;;;;;;8.68;1.80;;;7.80;99.90;;;;;;5026490;28;20204;-87
2022/02/23 03:24:26;;;;;;;7.38;1.67;;;7.70;99.90;;;;;;5026785;28;20226;-89
2022/02/23 03:26:53;;;;;;;10.77;1.67;;;7.70;99.90;;;;;;5022922;28;20222;-87
2022/02/23 03:29:20;;;;;;;12.80;2.90;;;7.70;99.90;;;;;;5023226;28;20246;-88
2022/02/23 03:31:48;;;;;;;8.73;2.25;;;7.70;99.90;;;;;;5022752;28;20215;-89
2022/02/23 03:34:15;;;;;;;6.13;1.70;;;7.70;99.90;;;;;;5022371;28;20266;-87
2022/02/23 03:36:42;;;;;;;11.32;2.30;;;7.70;99.90;;;;;;5026628;28;20234;-87
2022/02/23 03:39:09;;;;;;;7.78;1.73;;;7.80;99.90;;;;;;5032976;28;20294;-87
2022/02/23 03:41:36;;;;;;;8.27;1.90;;;7.70;99.90;;;;;;5025861;28;20265;-88
2022/02/23 03:44:03;;;;;;;6.57;1.90;;;7.70;99.90;;;;;;5023772;28;20239;-87
2022/02/23 03:46:30;;;;;;;4.85;1.50;;;7.70;99.90;;;;;;5023497;28;20252;-88
2022/02/23 03:48:58;;;;;;;7.20;2.20;;;7.60;99.90;;;;;;5025559;28;20285;-88
2022/02/23 03:51:25;;;;;;;7.67;2.00;;;7.60;99.90;;;;;;5028998;28;20453;-89
2022/02/23 03:53:51;;;;;;;4.80;1.80;;;7.60;99.90;;;;;;5031763;28;20470;-87
2022/02/23 03:59:06;;;;;;;7.38;2.45;;;7.50;99.90;;;;;;5030448;28;20214;-88
2022/02/23 04:01:33;;;;;;;9.20;2.03;;;7.50;99.90;;;;;;5030231;28;20214;-87
2022/02/23 04:04:01;;;;;;;12.60;3.50;;;7.50;99.90;;;;;;5030447;28;20227;-87
2022/02/23 04:06:28;;;;;;;5.90;2.15;;;7.30;99.90;;;;;;5038869;28;20207;-86
2022/02/23 04:08:55;;;;;;;4.80;2.30;;;7.60;99.90;;;;;;5040254;28;20245;-83
2022/02/23 04:11:22;;;;;;;9.27;2.40;;;7.50;99.90;;;;;;5039418;28;20206;-87
2022/02/23 04:13:49;;;;;;;11.15;2.30;;;7.10;99.90;;;;;;5038966;28;20331;-87
2022/02/23 04:16:16;;;;;;;6.63;1.95;;;7.40;99.90;;;;;;5039388;28;20202;-86
2022/02/23 04:18:44;;;;;;;8.25;2.28;;;7.50;99.90;;;;;;5038090;28;20239;-88
2022/02/23 04:21:12;;;;;;;6.95;2.33;;;7.50;99.90;;;;;;5038882;28;20211;-87
2022/02/23 04:23:39;;;;;;;10.52;1.88;;;7.50;99.90;;;;;;5039264;28;20263;-86
2022/02/23 04:26:06;;;;;;;7.75;2.05;;;7.50;99.90;;;;;;5034173;28;20212;-87
2022/02/23 04:28:34;;;;;;;4.80;1.45;;;7.50;99.90;;;;;;5026945;28;20267;-87
2022/02/23 04:31:01;;;;;;;7.40;1.98;;;7.20;99.90;;;;;;5025798;28;20773;-86
2022/02/23 04:33:28;;;;;;;13.63;2.05;;;7.50;99.90;;;;;;5022169;28;20416;-86
2022/02/23 04:35:55;;;;;;;9.05;1.92;;;7.50;99.90;;;;;;5021739;28;20305;-87
2022/02/23 04:38:23;;;;;;;5.78;2.22;;;7.40;99.90;;;;;;5032347;28;20211;-86
2022/02/23 04:40:50;;;;;;;6.43;1.83;;;7.50;99.90;;;;;;5036676;28;20330;-86
2022/02/23 04:43:17;;;;;;;5.63;1.73;;;7.40;99.90;;;;;;5031507;28;20258;-86
2022/02/23 04:45:44;;;;;;;6.95;1.90;;;7.40;99.90;;;;;;5038538;28;20497;-89
2022/02/23 04:48:11;;;;;;;8.10;3.25;;;7.40;99.90;;;;;;5037666;28;20199;-86
2022/02/23 04:50:38;;;;;;;6.75;1.90;;;7.30;99.90;;;;;;5033237;28;20250;-86
2022/02/23 04:53:05;;;;;;;7.35;2.42;;;7.30;99.90;;;;;;5025002;28;20643;-86
2022/02/23 04:55:35;;;;;;;7.47;2.38;;;7.40;99.90;;;;;;5024244;28;20218;-85
2022/02/23 04:58:07;;;;;;;8.45;2.40;;;7.50;99.90;;;;;;5026411;28;20222;-88
2022/02/23 05:00:35;;;;;;;6.32;2.10;;;7.20;99.90;;;;;;5035380;28;20231;-87
2022/02/23 05:03:02;;;;;;;10.07;1.83;;;7.10;99.90;;;;;;5031665;28;20230;-86
2022/02/23 05:05:29;;;;;;;6.38;2.47;;;7.20;99.90;;;;;;5027686;28;20278;-87
2022/02/23 05:07:56;;;;;;;9.35;2.53;;;7.10;99.90;;;;;;5025866;28;20299;-87
2022/02/23 05:10:23;;;;;;;8.95;2.67;;;7.00;99.90;;;;;;5025859;28;20325;-87
2022/02/23 05:12:51;;;;;;;5.65;2.20;;;7.10;99.90;;;;;;5025252;28;20254;-86
2022/02/23 05:15:18;;;;;;;5.20;2.30;;;7.10;99.90;;;;;;5027708;28;20312;-87
2022/02/23 05:17:44;;;;;;;5.35;2.20;;;7.20;99.90;;;;;;5026256;28;20298;-86
2022/02/23 05:20:12;;;;;;;9.07;2.28;;;6.90;99.90;;;;;;5021724;28;20270;-86
2022/02/23 05:22:39;;;;;;;9.55;2.80;;;7.10;99.90;;;;;;5020824;28;20644;-87
2022/02/23 05:25:07;;;;;;;12.10;2.10;;;7.10;99.90;;;;;;5022993;28;20293;-85
2022/02/23 05:27:34;;;;;;;9.98;2.25;;;7.30;99.90;;;;;;5022234;28;20207;-85
2022/02/23 05:30:02;;;;;;;6.70;2.25;;;7.00;99.90;;;;;;5024751;28;20314;-88
2022/02/23 05:32:29;;;;;;;9.10;2.53;;;7.00;99.90;;;;;;5022954;28;20215;-89
2022/02/23 05:34:56;;;;;;;7.00;4.10;;;7.10;99.90;;;;;;5024121;28;20301;-89
2022/02/23 05:37:23;;;;;;;6.82;2.63;;;6.90;99.90;;;;;;5027521;28;20214;-87
2022/02/23 05:39:50;;;;;;;8.20;2.72;;;7.00;99.90;;;;;;5027656;28;20221;-88
2022/02/23 05:42:16;;;;;;;7.38;2.28;;;6.80;99.90;;;;;;5037562;28;20226;-88
2022/02/23 05:44:43;;;;;;;5.97;2.40;;;6.40;99.90;;;;;;5029412;28;20270;-88
2022/02/23 05:47:12;;;;;;;10.57;2.28;;;6.70;99.90;;;;;;5028247;28;20278;-88
2022/02/23 05:49:39;;;;;;;9.38;2.85;;;6.60;99.90;;;;;;5031754;28;20303;-88
2022/02/23 05:52:06;;;;;;;10.52;3.00;;;6.70;99.90;;;;;;5030020;28;20226;-89
2022/02/23 05:54:33;;;;;;;6.88;2.20;;;6.60;99.90;;;;;;5031380;28;20293;-87
2022/02/23 05:57:00;;;;;;;9.07;2.30;;;6.50;99.90;;;;;;5035213;28;20248;-88
2022/02/23 05:59:27;;;;;;;9.27;2.67;;;6.60;99.90;;;;;;5025533;28;20242;-89
2022/02/23 06:01:53;;;;;;;12.10;3.72;;;6.40;99.90;;;;;;5035390;28;20207;-89
2022/02/23 06:04:22;;;;;;;8.07;2.72;;;6.30;99.90;;;;;;5025490;28;20245;-88
2022/02/23 06:06:48;;;;;;;12.43;3.53;;;6.40;99.90;;;;;;5022773;28;20278;-89
2022/02/23 06:09:16;;;;;;;8.70;3.30;;;6.50;99.90;;;;;;5025195;28;20218;-89
2022/02/23 06:11:44;;;;;;;5.85;2.85;;;6.50;99.90;;;;;;5023169;28;20218;-87
2022/02/23 06:14:11;;;;;;;8.73;2.50;;;6.40;99.90;;;;;;5023254;28;20236;-89
2022/02/23 06:16:38;;;;;;;9.90;3.50;;;6.40;99.90;;;;;;5022628;28;20235;-86
2022/02/23 06:19:05;;;;;;;9.57;3.85;;;6.20;99.90;;;;;;5022885;28;20217;-87
2022/02/23 06:21:34;;;;;;;13.60;4.00;;;6.30;99.90;;;;;;5022558;28;20714;-86
2022/02/23 06:24:01;;;;;;;11.10;3.58;;;5.90;99.90;;;;;;5025825;28;20298;-85
2022/02/23 06:26:30;;;;;;;8.07;3.35;;;6.20;99.90;;;;;;5036084;28;20200;-87
2022/02/23 06:28:57;;;;;;;9.75;4.10;;;6.20;99.90;;;;;;5027069;28;20222;-89
2022/02/23 06:31:24;;;;;;;9.10;3.60;;;5.80;99.90;;;;;;5025477;28;20226;-88
2022/02/23 06:33:51;;;;;;;7.03;2.97;;;6.20;99.90;;;;;;5023563;28;20234;-87
2022/02/23 06:36:19;;;;;;;10.00;3.78;;;6.30;99.90;;;;;;5022814;28;20675;-87
2022/02/23 06:38:47;;;;;;;5.82;3.20;;;6.40;99.90;;;;;;5022195;28;20261;-87
2022/02/23 06:41:16;;;;;;;12.27;4.07;;;6.40;99.90;;;;;;5023427;28;20239;-87
2022/02/23 06:43:45;;;;;;;6.13;3.38;;;6.30;99.90;;;;;;5024083;28;20245;-88
2022/02/23 06:46:12;;;;;;;8.63;4.30;;;6.50;99.90;;;;;;5023310;28;20210;-88
2022/02/23 06:48:40;;;;;;;9.85;3.85;;;6.30;99.90;;;;;;5026034;28;20275;-87
2022/02/23 06:51:08;;;;;;;9.35;3.80;;;6.50;99.90;;;;;;5026254;28;20217;-87
2022/02/23 06:53:35;;;;;;;9.07;3.75;;;6.00;99.90;;;;;;5027288;28;20233;-87
2022/02/23 06:56:03;;;;;;;8.80;4.00;;;6.30;99.90;;;;;;5026359;28;20278;-91
2022/02/23 06:58:30;;;;;;;10.32;3.78;;;6.20;99.90;;;;;;5031401;28;20215;-88
2022/02/23 07:00:58;;;;;;;13.73;4.95;;;6.20;99.90;;;;;;5026226;28;20258;-89
2022/02/23 07:03:25;;;;;;;10.00;5.15;;;6.20;99.90;;;;;;5025676;28;20294;-88
2022/02/23 07:05:52;;;;;;;7.97;4.10;;;5.80;99.90;;;;;;5021064;28;20720;-86
2022/02/23 07:08:18;;;;;;;10.32;4.28;;;5.70;99.90;;;;;;5022125;28;20224;-87
2022/02/23 07:10:45;;;;;;;9.05;3.80;;;6.30;99.90;;;;;;5022454;28;20241;-89
2022/02/23 07:13:14;;;;;;;7.95;3.75;;;6.00;99.90;;;;;;5023641;28;20604;-88
2022/02/23 07:15:40;;;;;;;11.13;3.38;;;6.20;99.90;;;;;;5024765;28;20218;-87
2022/02/23 07:18:07;;;;;;;8.07;3.95;;;6.30;99.90;;;;;;5029807;28;20240;-87
2022/02/23 07:20:34;;;;;;;7.10;3.60;;;6.40;99.90;;;;;;5029902;28;20210;-88
2022/02/23 07:23:01;;;;;;;8.27;4.00;;;6.30;99.90;;;;;;5022673;28;20233;-88
2022/02/23 07:25:28;;;;;;;11.25;3.70;;;5.90;99.90;;;;;;5022959;28;20567;-89
2022/02/23 07:27:55;;;;;;;8.52;4.30;;;6.30;99.90;;;;;;5023092;28;20217;-87
2022/02/23 07:30:23;;;;;;;10.73;3.80;;;6.50;99.90;;;;;;5033420;28;20218;-89
2022/02/23 07:32:51;;;;;;;8.75;4.07;;;6.40;99.90;;;;;;5039779;28;20225;-88
2022/02/23 07:35:19;;;;;;;10.15;4.22;;;6.10;99.90;;;;;;5034057;28;20230;-88
2022/02/23 07:37:49;;;;;;;13.63;3.65;;;6.30;99.90;;;;;;5035231;28;20183;-88
2022/02/23 07:40:20;;;;;;;8.40;3.60;;;6.10;99.90;;;;;;5040370;28;20181;-87
2022/02/23 07:42:48;;;;;;;11.50;5.18;;;6.80;99.90;;;;;;5034490;28;20250;-87
2022/02/23 07:45:15;;;;;;;8.23;4.30;;;6.40;99.90;;;;;;5030844;28;20289;-86
2022/02/23 07:47:44;;;;;;;10.00;3.72;;;6.60;99.90;;;;;;5027332;28;20195;-87
2022/02/23 07:50:15;;;;;;;8.93;3.97;;;6.70;99.90;;;;;;5036019;28;20242;-85
2022/02/23 07:52:43;;;;;;;8.35;4.20;;;6.40;99.90;;;;;;5037168;28;20203;-86
2022/02/23 07:55:10;;;;;;;8.88;4.07;;;6.80;99.90;;;;;;5025876;28;20266;-88
2022/02/23 07:57:37;;;;;;;7.35;3.60;;;6.70;99.90;;;;;;5025438;28;20294;-87
2022/02/23 08:00:05;;;;;;;8.60;3.80;;;7.00;99.90;;;;;;5028950;28;20236;-87
2022/02/23 08:02:33;;;;;;;8.02;3.75;;;7.10;99.90;;;;;;5027674;28;20238;-88
2022/02/23 08:05:01;;;;;;;7.27;4.10;;;7.20;99.90;;;;;;5027319;28;20207;-87
2022/02/23 08:07:31;;;;;;;11.18;4.00;;;7.30;99.90;;;;;;5027027;28;20461;-86
2022/02/23 08:09:58;;;;;;;6.95;3.40;;;7.50;99.90;;;;;;5030131;28;20237;-87
2022/02/23 08:12:27;;;;;;;12.40;4.10;;;7.50;99.90;;;;;;5030674;28;20278;-87
2022/02/23 08:14:55;;;;;;;9.95;3.83;;;7.60;99.90;;;;;;5027743;28;20211;-87
2022/02/23 08:20:10;;;;;;;9.07;3.58;;;7.80;99.90;;;;;;5027615;28;20248;-87
2022/02/23 08:22:37;;;;;;;9.02;4.40;;;7.90;99.90;;;;;;5028731;28;20237;-88
2022/02/23 08:25:04;;;;;;;7.70;4.43;;;8.10;99.90;;;;;;5027632;28;20590;-88
2022/02/23 08:27:33;;;;;;;11.30;4.47;;;8.10;99.90;;;;;;5024878;28;20537;-88
2022/02/23 08:30:00;;;;;;;8.38;4.30;;;8.10;99.90;;;;;;5025984;28;20251;-87
2022/02/23 08:32:27;;;;;;;6.40;3.33;;;8.20;99.90;;;;;;5026028;28;20207;-86
2022/02/23 08:34:54;;;;;;;8.15;3.47;;;8.30;99.90;;;;;;5029432;28;20211;-86
2022/02/23 08:37:22;;;;;;;7.82;3.03;;;8.40;99.90;;;;;;5032127;28;20257;-88
2022/02/23 08:39:51;;;;;;;13.15;3.90;;;8.40;99.90;;;;;;5025428;28;20217;-87
2022/02/23 08:42:18;;;;;;;10.07;3.50;;;8.50;99.90;;;;;;5025864;28;20210;-89
2022/02/23 08:44:46;;;;;;;7.45;3.22;;;8.60;99.90;;;;;;5050156;23;20552;-86
2022/02/23 08:47:13;;;;;;;11.75;3.85;;;8.70;99.90;;;;;;5029295;28;20215;-87
2022/02/23 08:49:40;;;;;;;8.20;2.87;;;9.00;99.90;;;;;;5027137;28;20207;-88
2022/02/23 08:52:08;;;;;;;7.60;2.60;;;9.10;99.90;;;;;;5027873;28;20486;-88
2022/02/23 08:54:37;;;;;;;13.67;3.20;;;9.20;99.90;;;;;;5027952;28;20467;-86
2022/02/23 08:57:04;;;;;;;8.20;3.13;;;9.30;99.90;;;;;;5034285;28;20458;-86
2022/02/23 08:59:32;;;;;;;8.80;2.40;;;9.30;99.90;;;;;;5028132;28;20457;-85
2022/02/23 09:01:59;;;;;;;5.90;2.30;;;9.50;99.90;;;;;;5027165;28;20456;-86
2022/02/23 09:04:26;;;;;;;11.03;4.67;;;9.50;99.90;;;;;;5024992;28;20455;-86
2022/02/23 09:06:53;;;;;;;8.93;3.40;;;9.70;99.90;;;;;;5025876;28;20459;-85
2022/02/23 09:09:21;;;;;;;8.53;2.53;;;9.60;99.90;;;;;;5027992;28;20482;-87
2022/02/23 09:11:49;;;;;;;5.80;2.00;;;9.60;99.90;;;;;;5033406;28;20496;-86
2022/02/23 09:14:17;;;;;;;7.13;2.27;;;9.60;99.90;;;;;;5038441;28;20502;-85
2022/02/23 09:16:44;;;;;;;7.83;2.90;;;9.60;99.90;;;;;;5027987;28;20450;-86
2022/02/23 09:19:12;;;;;;;11.83;2.27;;;9.60;99.90;;;;;;5025315;28;20478;-87
2022/02/23 09:21:42;;;;;;;7.33;2.80;;;9.50;99.90;;;;;;5025842;28;20972;-87
2022/02/23 09:24:11;;;;;;;7.27;2.17;;;9.70;99.90;;;;;;5025914;28;20469;-87
2022/02/23 09:26:38;;;;;;;9.17;2.37;;;9.80;99.90;;;;;;5028849;28;20439;-85
2022/02/23 09:29:07;;;;;;;7.13;2.40;;;9.80;99.90;;;;;;5034025;28;20482;-86
2022/02/23 09:31:36;;;;;;;12.20;3.40;;;10.10;99.90;;;;;;5027430;28;20456;-86
2022/02/23 09:34:03;;;;;;;10.77;2.50;;;10.20;99.90;;;;;;5024198;28;20475;-86
2022/02/23 09:36:29;;;;;;;6.40;2.80;;;10.30;99.90;;;;;;5025576;28;20490;-86
2022/02/23 09:38:56;;;;;;;8.90;2.43;;;10.40;99.90;;;;;;5031036;28;20470;-86
2022/02/23 09:41:24;;;;;;;9.03;2.40;;;10.40;99.90;;;;;;5029423;28;20421;-85
2022/02/23 09:43:54;;;;;;;10.00;1.80;;;10.60;99.90;;;;;;5027102;28;20483;-85
2022/02/23 09:46:23;;;;;;;9.10;1.90;;;10.70;99.90;;;;;;5027042;28;20903;-87
2022/02/23 09:48:50;;;;;;;5.10;1.83;;;10.90;99.90;;;;;;5025453;28;20454;-85
2022/02/23 09:51:18;;;;;;;5.60;1.87;;;10.90;99.90;;;;;;5025510;28;21034;-87
2022/02/23 09:53:46;;;;;;;8.93;2.53;;;10.90;99.90;;;;;;5038325;28;20497;-86
2022/02/23 09:56:14;;;;;;;4.70;1.60;;;10.90;99.90;;;;;;5038660;28;20540;-86
2022/02/23 09:58:41;;;;;;;6.23;2.20;;;11.10;99.90;;;;;;5029181;28;21001;-87
2022/02/23 10:01:09;;;;;;;8.10;1.80;;;11.10;99.90;;;;;;5027525;28;20443;-86
2022/02/23 10:03:38;;;;;;;7.00;1.97;;;10.90;99.90;;;;;;5029744;28;20472;-87
2022/02/23 10:06:06;;;;;;;7.60;1.60;;;10.90;99.90;;;;;;5039165;28;20481;-86
2022/02/23 10:08:35;;;;;;;6.67;1.50;;;10.90;99.90;;;;;;5030509;28;20446;-86
2022/02/23 10:11:02;;;;;;;4.60;1.77;;;10.90;99.90;;;;;;5026870;28;20460;-86
2022/02/23 10:13:29;;;;;;;5.17;2.30;;;10.90;99.90;;;;;;5027428;28;20516;-86
2022/02/23 10:15:58;;;;;;;10.70;2.23;;;10.90;99.90;;;;;;5026004;28;20462;-87
2022/02/23 10:18:28;;;;;;;6.43;2.30;;;11.00;99.90;;;;;;5026888;28;20449;-86
2022/02/23 10:20:57;;;;;;;8.17;2.73;;;11.00;99.90;;;;;;5027175;28;20508;-87
2022/02/23 10:23:28;;;;;;;7.80;2.43;;;11.10;99.90;;;;;;5026667;28;20472;-87
2022/02/23 10:25:58;;;;;;;8.30;2.17;;;11.20;99.90;;;;;;5027881;28;20446;-86
2022/02/23 10:28:28;;;;;;;6.80;2.00;;;11.30;99.90;;;;;;5029598;28;20438;-85
2022/02/23 10:30:56;;;;;;;5.40;1.53;;;11.40;99.90;;;;;;5026873;28;20452;-84
2022/02/23 10:33:25;;;;;;;5.90;1.90;;;11.30;99.90;;;;;;5027982;28;20454;-85
2022/02/23 10:35:58;;;;;;;5.83;2.00;;;11.20;99.90;;;;;;5025361;28;20450;-86
2022/02/23 10:38:28;;;;;;;5.23;1.67;;;11.40;99.90;;;;;;5026342;28;20486;-84
2022/02/23 10:40:56;;;;;;;6.10;1.60;;;11.40;99.90;;;;;;5026845;28;20493;-86
2022/02/23 10:43:28;;;;;;;6.33;1.93;;;11.50;99.90;;;;;;5026015;28;20446;-86
2022/02/23 10:46:05;;;;;;;6.27;2.60;;;11.70;99.90;;;;;;5025023;28;20496;-86
2022/02/23 10:48:38;;;;;;;6.90;2.20;;;11.70;99.90;;;;;;5026345;28;20454;-86
2022/02/23 10:51:07;;;;;;;6.23;1.80;;;11.50;99.90;;;;;;5024528;28;21007;-85
2022/02/23 10:53:36;;;;;;;11.73;2.40;;;11.60;99.90;;;;;;5023665;28;20908;-86
2022/02/23 10:56:22;;;;;;;5.60;2.00;;;11.60;99.90;;;;;;5025357;28;20484;-86
2022/02/23 10:59:01;;;;;;;8.60;2.37;;;11.60;99.90;;;;;;5023711;28;20509;-85
2022/02/23 11:01:29;;;;;;;5.63;1.80;;;11.70;99.90;;;;;;5022924;28;20431;-85
2022/02/23 11:03:57;;;;;;;8.23;1.87;;;11.60;99.90;;;;;;5023039;28;20948;-86
2022/02/23 11:06:29;;;;;;;7.13;1.73;;;11.70;99.90;;;;;;5024420;28;20481;-86
2022/02/23 11:08:57;;;;;;;5.37;2.20;;;11.60;99.90;;;;;;5025190;28;20442;-85
2022/02/23 11:11:25;;;;;;;7.47;1.90;;;11.60;99.90;;;;;;5033184;28;20486;-84
2022/02/23 11:14:26;;;;;;;5.43;1.53;;;11.60;99.90;;;;;;5030863;28;20451;-86
2022/02/23 11:16:55;;;;;;;6.70;2.33;;;11.70;99.90;;;;;;5028286;28;20484;-87
2022/02/23 11:19:24;;;;;;;6.20;1.97;;;11.90;99.90;;;;;;5025593;28;20969;-85
2022/02/23 11:22:02;;;;;;;5.50;2.13;;;11.90;99.90;;;;;;5027847;28;20881;-85
2022/02/23 11:24:31;;;;;;;7.47;1.97;;;11.90;99.90;;;;;;5027302;28;20433;-85
2022/02/23 11:27:05;;;;;;;6.23;1.93;;;12.00;99.90;;;;;;5028722;28;20466;-85
2022/02/23 11:29:39;;;;;;;6.43;1.70;;;12.00;99.90;;;;;;5034170;28;20393;-85
2022/02/23 11:32:15;;;;;;;5.63;1.67;;;12.20;99.90;;;;;;5035672;28;20469;-85
2022/02/23 11:34:42;;;;;;;6.07;1.70;;;12.10;99.90;;;;;;5030544;28;20951;-85
2022/02/23 11:37:16;;;;;;;7.00;2.07;;;12.00;99.90;;;;;;5024924;28;20458;-85
2022/02/23 11:39:45;;;;;;;10.53;2.70;;;12.00;99.90;;;;;;5024170;28;20602;-85
2022/02/23 11:42:22;;;;;;;6.53;2.13;;;11.90;99.90;;;;;;5024080;28;20479;-85
2022/02/23 11:44:51;;;;;;;9.90;2.10;;;11.80;99.90;;;;;;5022798;28;20561;-85
2022/02/23 11:53:14;;;;;;;5.93;2.17;;;12.00;99.90;;;;;;5023049;28;20410;-85
2022/02/23 11:59:02;;;;;;;6.53;1.90;;;11.90;99.90;;;;;;5023959;28;20494;-85
2022/02/23 12:01:46;;;;;;;5.70;1.73;;;11.80;99.90;;;;;;5024631;28;20496;-85
2022/02/23 12:04:18;;;;;;;6.23;1.50;;;12.00;99.90;;;;;;5025875;28;20470;-86
2022/02/23 12:07:08;;;;;;;9.80;2.20;;;12.10;99.90;;;;;;5024610;28;20504;-86
2022/02/23 12:10:06;;;;;;;8.53;2.13;;;12.00;99.90;;;;;;5024422;28;20431;-85
2022/02/23 12:12:51;;;;;;;5.03;1.90;;;11.90;99.90;;;;;;5029720;28;20458;-85
2022/02/23 12:15:27;;;;;;;6.70;2.20;;;12.00;99.90;;;;;;5024151;28;20452;-85
2022/02/23 12:17:58;;;;;;;10.93;2.40;;;12.00;99.90;;;;;;5025224;28;20497;-85
2022/02/23 12:20:54;;;;;;;5.73;2.03;;;12.10;99.90;;;;;;5026073;28;20461;-85
2022/02/23 12:23:33;;;;;;;5.93;2.07;;;12.00;99.90;;;;;;5024583;28;20885;-86
2022/02/23 12:26:28;;;;;;;7.80;1.93;;;12.00;99.90;;;;;;5024232;28;20449;-85
2022/02/23 12:28:58;;;;;;;9.83;2.53;;;12.10;99.90;;;;;;5026980;28;20871;-85
2022/02/23 12:31:28;;;;;;;4.40;2.20;;;12.40;99.90;;;;;;5026220;28;20961;-86
2022/02/23 12:33:58;;;;;;;9.17;1.70;;;12.40;99.90;;;;;;5025236;28;20533;-85
2022/02/23 12:36:33;;;;;;;8.87;2.30;;;12.50;99.90;;;;;;5026128;28;20504;-85
2022/02/23 12:39:01;;;;;;;8.83;2.23;;;12.60;99.90;;;;;;5026184;28;20461;-85
2022/02/23 12:41:32;;;;;;;5.87;2.10;;;12.50;99.90;;;;;;5027676;28;20443;-84
2022/02/23 12:44:09;;;;;;;6.37;2.30;;;12.60;99.90;;;;;;5029783;28;20481;-85
2022/02/23 12:46:38;;;;;;;11.50;2.30;;;12.60;99.90;;;;;;5031851;28;20423;-85
2022/02/23 12:49:06;;;;;;;7.43;2.70;;;12.70;99.90;;;;;;5027656;28;20451;-84
2022/02/23 12:51:33;;;;;;;4.90;1.53;;;12.80;99.90;;;;;;5027446;28;20509;-86
2022/02/23 12:54:03;;;;;;;4.77;1.67;;;12.80;99.90;;;;;;5026218;28;20465;-85
2022/02/23 12:56:43;;;;;;;7.13;2.17;;;12.80;99.30;;;;;;5027208;28;20523;-85
2022/02/23 12:59:12;;;;;;;5.07;1.67;;;12.80;98.50;;;;;;5030144;28;20438;-84
2022/02/23 13:01:41;;;;;;;6.83;1.90;;;12.90;98.20;;;;;;5035917;28;20421;-85
2022/02/23 13:04:09;;;;;;;5.17;2.03;;;12.90;97.80;;;;;;5033568;28;20455;-84
2022/02/23 13:06:40;;;;;;;6.97;2.23;;;12.90;98.10;;;;;;5032645;28;20460;-84
2022/02/23 13:09:10;;;;;;;4.90;2.20;;;12.80;97.90;;;;;;5030094;28;20437;-85
2022/02/23 13:11:40;;;;;;;6.87;1.93;;;12.80;98.10;;;;;;5038517;28;20434;-84
2022/02/23 13:14:11;;;;;;;5.47;1.73;;;12.60;98.10;;;;;;5036763;28;20449;-85